sensor_id;sensor_type;location;lat;lon;timestamp;temperature;humidity
36990;DHT22;22898;52.102;5.776;2023-12-20T00:01:20;10.70;99.90
36990;DHT22;22898;52.102;5.776;2023-12-20T00:03:46;10.80;99.90
36990;DHT22;22898;52.102;5.776;2023-12-20T00:06:12;10.70;99.90
36990;DHT22;22898;52.102;5.776;2023-12-20T00:08:37;10.40;99.90
36990;DHT22;22898;52.102;5.776;2023-12-20T00:11:03;10.50;99.90
36990;DHT22;22898;52.102;5.776;2023-12-20T00:13:28;10.20;99.90
36990;DHT22;22898;52.102;5.776;2023-12-20T00:15:54;10.00;99.90
36990;DHT22;22898;52.102;5.776;2023-12-20T00:18:20;10.10;99.90
36990;DHT22;22898;52.102;5.776;2023-12-20T00:20:45;10.30;99.90
36990;DHT22;22898;52.102;5.776;2023-12-20T00:23:11;10.40;99.90
36990;DHT22;22898;52.102;5.776;2023-12-20T00:25:36;10.40;99.90
36990;DHT22;22898;52.102;5.776;2023-12-20T00:28:02;10.60;99.90
36990;DHT22;22898;52.102;5.776;2023-12-20T00:30:28;10.30;99.90
36990;DHT22;22898;52.102;5.776;2023-12-20T00:32:55;10.10;99.90
36990;DHT22;22898;52.102;5.776;2023-12-20T00:35:21;9.90;99.90
36990;DHT22;22898;52.102;5.776;2023-12-20T00:37:46;9.90;99.90
36990;DHT22;22898;52.102;5.776;2023-12-20T00:40:12;9.90;99.90
36990;DHT22;22898;52.102;5.776;2023-12-20T00:42:38;9.80;99.90
36990;DHT22;22898;52.102;5.776;2023-12-20T00:45:04;9.80;99.90
36990;DHT22;22898;52.102;5.776;2023-12-20T00:47:30;9.90;99.90
36990;DHT22;22898;52.102;5.776;2023-12-20T00:49:57;10.00;99.90
36990;DHT22;22898;52.102;5.776;2023-12-20T00:52:23;9.70;99.90
36990;DHT22;22898;52.102;5.776;2023-12-20T00:54:49;9.70;99.90
36990;DHT22;22898;52.102;5.776;2023-12-20T00:57:14;9.60;99.90
36990;DHT22;22898;52.102;5.776;2023-12-20T00:59:40;9.70;99.90
36990;DHT22;22898;52.102;5.776;2023-12-20T01:02:06;9.60;99.90
36990;DHT22;22898;52.102;5.776;2023-12-20T01:04:31;9.60;99.90
36990;DHT22;22898;52.102;5.776;2023-12-20T01:06:57;9.60;99.90
36990;DHT22;22898;52.102;5.776;2023-12-20T01:09:23;9.50;99.90
36990;DHT22;22898;52.102;5.776;2023-12-20T01:11:54;9.50;99.90
36990;DHT22;22898;52.102;5.776;2023-12-20T01:14:20;9.60;99.90
36990;DHT22;22898;52.102;5.776;2023-12-20T01:16:46;9.40;99.90
36990;DHT22;22898;52.102;5.776;2023-12-20T01:19:12;9.20;99.90
36990;DHT22;22898;52.102;5.776;2023-12-20T01:21:38;9.20;99.90
36990;DHT22;22898;52.102;5.776;2023-12-20T01:24:04;9.80;99.90
36990;DHT22;22898;52.102;5.776;2023-12-20T01:26:29;9.90;99.90
36990;DHT22;22898;52.102;5.776;2023-12-20T01:28:55;9.50;99.90
36990;DHT22;22898;52.102;5.776;2023-12-20T01:31:20;9.40;99.90
36990;DHT22;22898;52.102;5.776;2023-12-20T01:33:46;9.30;99.90
36990;DHT22;22898;52.102;5.776;2023-12-20T01:36:12;9.10;99.90
36990;DHT22;22898;52.102;5.776;2023-12-20T01:38:37;9.10;99.90
36990;DHT22;22898;52.102;5.776;2023-12-20T01:41:03;9.10;99.90
36990;DHT22;22898;52.102;5.776;2023-12-20T01:43:30;9.10;99.90
36990;DHT22;22898;52.102;5.776;2023-12-20T01:45:58;9.30;99.90
36990;DHT22;22898;52.102;5.776;2023-12-20T01:48:25;9.10;99.90
36990;DHT22;22898;52.102;5.776;2023-12-20T01:50:51;9.10;99.90
36990;DHT22;22898;52.102;5.776;2023-12-20T01:53:19;9.20;99.90
36990;DHT22;22898;52.102;5.776;2023-12-20T01:55:45;9.70;99.90
36990;DHT22;22898;52.102;5.776;2023-12-20T01:58:12;9.70;99.90
36990;DHT22;22898;52.102;5.776;2023-12-20T02:00:39;9.40;99.90
36990;DHT22;22898;52.102;5.776;2023-12-20T02:03:04;9.60;99.90
36990;DHT22;22898;52.102;5.776;2023-12-20T02:05:31;9.70;99.90
36990;DHT22;22898;52.102;5.776;2023-12-20T02:07:57;9.70;99.90
36990;DHT22;22898;52.102;5.776;2023-12-20T02:10:23;9.60;99.90
36990;DHT22;22898;52.102;5.776;2023-12-20T02:12:48;9.50;99.90
36990;DHT22;22898;52.102;5.776;2023-12-20T02:15:14;9.50;99.90
36990;DHT22;22898;52.102;5.776;2023-12-20T02:17:40;9.20;99.90
36990;DHT22;22898;52.102;5.776;2023-12-20T02:20:06;9.20;99.90
36990;DHT22;22898;52.102;5.776;2023-12-20T02:22:32;9.10;99.90
36990;DHT22;22898;52.102;5.776;2023-12-20T02:24:57;9.10;99.90
36990;DHT22;22898;52.102;5.776;2023-12-20T02:27:23;9.00;99.90
36990;DHT22;22898;52.102;5.776;2023-12-20T02:29:50;9.10;99.90
36990;DHT22;22898;52.102;5.776;2023-12-20T02:32:17;9.10;99.90
36990;DHT22;22898;52.102;5.776;2023-12-20T02:34:43;9.00;99.90
36990;DHT22;22898;52.102;5.776;2023-12-20T02:37:08;9.40;99.90
36990;DHT22;22898;52.102;5.776;2023-12-20T02:39:34;9.80;99.90
36990;DHT22;22898;52.102;5.776;2023-12-20T02:42:00;10.00;99.90
36990;DHT22;22898;52.102;5.776;2023-12-20T02:44:25;10.40;99.90
36990;DHT22;22898;52.102;5.776;2023-12-20T02:46:51;10.30;99.90
36990;DHT22;22898;52.102;5.776;2023-12-20T02:49:16;10.40;99.90
36990;DHT22;22898;52.102;5.776;2023-12-20T02:51:42;10.10;99.90
36990;DHT22;22898;52.102;5.776;2023-12-20T02:54:08;9.70;99.90
36990;DHT22;22898;52.102;5.776;2023-12-20T02:56:33;9.60;99.90
36990;DHT22;22898;52.102;5.776;2023-12-20T02:58:59;9.60;99.90
36990;DHT22;22898;52.102;5.776;2023-12-20T03:01:25;9.70;99.90
36990;DHT22;22898;52.102;5.776;2023-12-20T03:03:50;9.40;99.90
36990;DHT22;22898;52.102;5.776;2023-12-20T03:06:18;9.50;99.90
36990;DHT22;22898;52.102;5.776;2023-12-20T03:08:44;9.50;99.90
36990;DHT22;22898;52.102;5.776;2023-12-20T03:11:10;9.60;99.90
36990;DHT22;22898;52.102;5.776;2023-12-20T03:13:35;10.00;99.90
36990;DHT22;22898;52.102;5.776;2023-12-20T03:16:01;10.40;99.90
36990;DHT22;22898;52.102;5.776;2023-12-20T03:18:33;10.30;99.90
36990;DHT22;22898;52.102;5.776;2023-12-20T03:20:58;10.10;99.90
36990;DHT22;22898;52.102;5.776;2023-12-20T03:23:24;10.40;99.90
36990;DHT22;22898;52.102;5.776;2023-12-20T03:25:49;10.50;99.90
36990;DHT22;22898;52.102;5.776;2023-12-20T03:28:15;10.70;99.90
36990;DHT22;22898;52.102;5.776;2023-12-20T03:30:41;10.50;99.90
36990;DHT22;22898;52.102;5.776;2023-12-20T03:33:07;10.40;99.90
36990;DHT22;22898;52.102;5.776;2023-12-20T03:35:33;10.30;99.90
36990;DHT22;22898;52.102;5.776;2023-12-20T03:37:58;10.00;99.90
36990;DHT22;22898;52.102;5.776;2023-12-20T03:40:25;10.00;99.90
36990;DHT22;22898;52.102;5.776;2023-12-20T03:42:51;9.70;99.90
36990;DHT22;22898;52.102;5.776;2023-12-20T03:45:17;9.50;99.90
36990;DHT22;22898;52.102;5.776;2023-12-20T03:47:42;9.20;99.90
36990;DHT22;22898;52.102;5.776;2023-12-20T03:50:08;9.20;99.90
36990;DHT22;22898;52.102;5.776;2023-12-20T03:52:33;9.20;99.90
36990;DHT22;22898;52.102;5.776;2023-12-20T03:54:59;9.30;99.90
36990;DHT22;22898;52.102;5.776;2023-12-20T03:57:25;9.60;99.90
36990;DHT22;22898;52.102;5.776;2023-12-20T03:59:50;9.60;99.90
36990;DHT22;22898;52.102;5.776;2023-12-20T04:02:16;9.70;99.90
36990;DHT22;22898;52.102;5.776;2023-12-20T04:04:43;9.80;99.90
36990;DHT22;22898;52.102;5.776;2023-12-20T04:07:09;9.40;99.90
36990;DHT22;22898;52.102;5.776;2023-12-20T04:09:34;9.40;99.90
36990;DHT22;22898;52.102;5.776;2023-12-20T04:12:00;9.50;99.90
36990;DHT22;22898;52.102;5.776;2023-12-20T04:14:26;9.20;99.90
36990;DHT22;22898;52.102;5.776;2023-12-20T04:16:52;9.20;99.90
36990;DHT22;22898;52.102;5.776;2023-12-20T04:19:17;9.20;99.90
36990;DHT22;22898;52.102;5.776;2023-12-20T04:21:43;9.70;99.90
36990;DHT22;22898;52.102;5.776;2023-12-20T04:24:09;10.40;99.90
36990;DHT22;22898;52.102;5.776;2023-12-20T04:26:34;10.70;99.90
36990;DHT22;22898;52.102;5.776;2023-12-20T04:29:00;10.60;99.90
36990;DHT22;22898;52.102;5.776;2023-12-20T04:31:25;10.40;99.90
36990;DHT22;22898;52.102;5.776;2023-12-20T04:33:51;10.50;99.90
36990;DHT22;22898;52.102;5.776;2023-12-20T04:36:17;10.70;99.90
36990;DHT22;22898;52.102;5.776;2023-12-20T04:38:42;10.50;99.90
36990;DHT22;22898;52.102;5.776;2023-12-20T04:41:08;10.30;99.90
36990;DHT22;22898;52.102;5.776;2023-12-20T04:43:33;10.30;99.90
36990;DHT22;22898;52.102;5.776;2023-12-20T04:46:02;9.90;99.90
36990;DHT22;22898;52.102;5.776;2023-12-20T04:48:28;9.90;99.90
36990;DHT22;22898;52.102;5.776;2023-12-20T04:50:54;9.80;99.90
36990;DHT22;22898;52.102;5.776;2023-12-20T04:53:19;9.80;99.90
36990;DHT22;22898;52.102;5.776;2023-12-20T04:55:45;9.90;99.90
36990;DHT22;22898;52.102;5.776;2023-12-20T04:58:10;9.70;99.90
36990;DHT22;22898;52.102;5.776;2023-12-20T05:00:36;9.70;99.90
36990;DHT22;22898;52.102;5.776;2023-12-20T05:03:02;10.20;99.90
36990;DHT22;22898;52.102;5.776;2023-12-20T05:05:27;10.00;99.90
36990;DHT22;22898;52.102;5.776;2023-12-20T05:07:54;10.00;99.90
36990;DHT22;22898;52.102;5.776;2023-12-20T05:10:20;10.10;99.90
36990;DHT22;22898;52.102;5.776;2023-12-20T05:12:45;9.90;99.90
36990;DHT22;22898;52.102;5.776;2023-12-20T05:15:11;10.00;99.90
36990;DHT22;22898;52.102;5.776;2023-12-20T05:17:36;9.90;99.90
36990;DHT22;22898;52.102;5.776;2023-12-20T05:20:02;9.80;99.90
36990;DHT22;22898;52.102;5.776;2023-12-20T05:22:28;10.00;99.90
36990;DHT22;22898;52.102;5.776;2023-12-20T05:24:54;10.10;99.90
36990;DHT22;22898;52.102;5.776;2023-12-20T05:27:19;10.10;99.90
36990;DHT22;22898;52.102;5.776;2023-12-20T05:29:45;10.40;99.90
36990;DHT22;22898;52.102;5.776;2023-12-20T05:32:10;10.40;99.90
36990;DHT22;22898;52.102;5.776;2023-12-20T05:34:36;10.50;99.90
36990;DHT22;22898;52.102;5.776;2023-12-20T05:37:02;10.10;99.90
36990;DHT22;22898;52.102;5.776;2023-12-20T05:39:27;10.10;99.90
36990;DHT22;22898;52.102;5.776;2023-12-20T05:41:53;10.10;99.90
36990;DHT22;22898;52.102;5.776;2023-12-20T05:44:19;10.00;99.90
36990;DHT22;22898;52.102;5.776;2023-12-20T05:46:44;9.70;99.90
36990;DHT22;22898;52.102;5.776;2023-12-20T05:49:10;9.50;99.90
36990;DHT22;22898;52.102;5.776;2023-12-20T05:51:36;9.20;99.90
36990;DHT22;22898;52.102;5.776;2023-12-20T05:54:01;9.30;99.90
36990;DHT22;22898;52.102;5.776;2023-12-20T05:56:27;9.40;99.90
36990;DHT22;22898;52.102;5.776;2023-12-20T05:58:53;9.80;99.90
36990;DHT22;22898;52.102;5.776;2023-12-20T06:01:18;9.60;99.90
36990;DHT22;22898;52.102;5.776;2023-12-20T06:03:44;9.30;99.90
36990;DHT22;22898;52.102;5.776;2023-12-20T06:06:11;9.40;99.90
36990;DHT22;22898;52.102;5.776;2023-12-20T06:08:38;9.40;99.90
36990;DHT22;22898;52.102;5.776;2023-12-20T06:11:04;9.60;99.90
36990;DHT22;22898;52.102;5.776;2023-12-20T06:13:30;10.00;99.90
36990;DHT22;22898;52.102;5.776;2023-12-20T06:15:56;9.70;99.90
36990;DHT22;22898;52.102;5.776;2023-12-20T06:18:22;9.80;99.90
36990;DHT22;22898;52.102;5.776;2023-12-20T06:20:48;9.60;99.90
36990;DHT22;22898;52.102;5.776;2023-12-20T06:23:14;9.60;99.90
36990;DHT22;22898;52.102;5.776;2023-12-20T06:25:39;9.60;99.90
36990;DHT22;22898;52.102;5.776;2023-12-20T06:28:05;9.40;99.90
36990;DHT22;22898;52.102;5.776;2023-12-20T06:30:31;9.40;99.90
36990;DHT22;22898;52.102;5.776;2023-12-20T06:32:58;9.70;99.90
36990;DHT22;22898;52.102;5.776;2023-12-20T06:35:24;9.80;99.90
36990;DHT22;22898;52.102;5.776;2023-12-20T06:37:50;9.60;99.90
36990;DHT22;22898;52.102;5.776;2023-12-20T06:40:16;9.80;99.90
36990;DHT22;22898;52.102;5.776;2023-12-20T06:42:41;10.00;99.90
36990;DHT22;22898;52.102;5.776;2023-12-20T06:45:07;9.80;99.90
36990;DHT22;22898;52.102;5.776;2023-12-20T06:47:33;9.70;99.90
36990;DHT22;22898;52.102;5.776;2023-12-20T06:49:59;9.50;99.90
36990;DHT22;22898;52.102;5.776;2023-12-20T06:52:24;9.60;99.90
36990;DHT22;22898;52.102;5.776;2023-12-20T06:54:50;9.40;99.90
36990;DHT22;22898;52.102;5.776;2023-12-20T06:57:16;9.70;99.90
36990;DHT22;22898;52.102;5.776;2023-12-20T06:59:42;9.90;99.90
36990;DHT22;22898;52.102;5.776;2023-12-20T07:02:08;9.70;99.90
36990;DHT22;22898;52.102;5.776;2023-12-20T07:04:38;9.70;99.90
36990;DHT22;22898;52.102;5.776;2023-12-20T07:07:04;9.60;99.90
36990;DHT22;22898;52.102;5.776;2023-12-20T07:09:29;9.80;99.90
36990;DHT22;22898;52.102;5.776;2023-12-20T07:11:55;9.70;99.90
36990;DHT22;22898;52.102;5.776;2023-12-20T07:14:20;9.80;99.90
36990;DHT22;22898;52.102;5.776;2023-12-20T07:16:46;9.70;99.90
36990;DHT22;22898;52.102;5.776;2023-12-20T07:19:12;9.60;99.90
36990;DHT22;22898;52.102;5.776;2023-12-20T07:21:38;9.60;99.90
36990;DHT22;22898;52.102;5.776;2023-12-20T07:24:03;9.50;99.90
36990;DHT22;22898;52.102;5.776;2023-12-20T07:26:29;9.80;99.90
36990;DHT22;22898;52.102;5.776;2023-12-20T07:28:54;9.80;99.90
36990;DHT22;22898;52.102;5.776;2023-12-20T07:31:20;9.90;99.90
36990;DHT22;22898;52.102;5.776;2023-12-20T07:33:46;9.60;99.90
36990;DHT22;22898;52.102;5.776;2023-12-20T07:36:12;9.60;99.90
36990;DHT22;22898;52.102;5.776;2023-12-20T07:38:38;9.50;99.90
36990;DHT22;22898;52.102;5.776;2023-12-20T07:41:04;9.80;99.90
36990;DHT22;22898;52.102;5.776;2023-12-20T07:43:30;9.80;99.90
36990;DHT22;22898;52.102;5.776;2023-12-20T07:45:55;9.90;99.90
36990;DHT22;22898;52.102;5.776;2023-12-20T07:48:21;9.70;99.90
36990;DHT22;22898;52.102;5.776;2023-12-20T07:50:47;9.80;99.90
36990;DHT22;22898;52.102;5.776;2023-12-20T07:53:12;9.70;99.90
36990;DHT22;22898;52.102;5.776;2023-12-20T07:55:39;9.50;99.90
36990;DHT22;22898;52.102;5.776;2023-12-20T07:58:05;9.40;99.90
36990;DHT22;22898;52.102;5.776;2023-12-20T08:00:30;9.60;99.90
36990;DHT22;22898;52.102;5.776;2023-12-20T08:02:56;9.70;99.90
36990;DHT22;22898;52.102;5.776;2023-12-20T08:05:21;9.40;99.90
36990;DHT22;22898;52.102;5.776;2023-12-20T08:07:47;9.40;99.90
36990;DHT22;22898;52.102;5.776;2023-12-20T08:10:13;9.60;99.90
36990;DHT22;22898;52.102;5.776;2023-12-20T08:12:38;9.50;99.90
36990;DHT22;22898;52.102;5.776;2023-12-20T08:15:05;9.60;99.90
36990;DHT22;22898;52.102;5.776;2023-12-20T08:17:31;9.70;99.90
36990;DHT22;22898;52.102;5.776;2023-12-20T08:19:57;10.00;99.90
36990;DHT22;22898;52.102;5.776;2023-12-20T08:22:22;9.90;99.90
36990;DHT22;22898;52.102;5.776;2023-12-20T08:24:48;9.60;99.90
36990;DHT22;22898;52.102;5.776;2023-12-20T08:27:13;9.40;99.90
36990;DHT22;22898;52.102;5.776;2023-12-20T08:29:39;9.50;99.90
36990;DHT22;22898;52.102;5.776;2023-12-20T08:32:05;9.50;99.90
36990;DHT22;22898;52.102;5.776;2023-12-20T08:34:30;9.80;99.90
36990;DHT22;22898;52.102;5.776;2023-12-20T08:36:56;10.20;99.90
36990;DHT22;22898;52.102;5.776;2023-12-20T08:39:22;10.10;99.90
36990;DHT22;22898;52.102;5.776;2023-12-20T08:41:47;9.90;99.90
36990;DHT22;22898;52.102;5.776;2023-12-20T08:44:13;9.80;99.90
36990;DHT22;22898;52.102;5.776;2023-12-20T08:46:39;9.60;99.90
36990;DHT22;22898;52.102;5.776;2023-12-20T08:49:05;9.80;99.90
36990;DHT22;22898;52.102;5.776;2023-12-20T08:51:30;10.00;99.90
36990;DHT22;22898;52.102;5.776;2023-12-20T08:53:56;10.00;99.90
36990;DHT22;22898;52.102;5.776;2023-12-20T08:56:22;10.40;99.90
36990;DHT22;22898;52.102;5.776;2023-12-20T08:58:47;10.10;99.90
36990;DHT22;22898;52.102;5.776;2023-12-20T09:01:14;9.90;99.90
36990;DHT22;22898;52.102;5.776;2023-12-20T09:03:40;9.90;99.90
36990;DHT22;22898;52.102;5.776;2023-12-20T09:06:06;9.80;99.90
36990;DHT22;22898;52.102;5.776;2023-12-20T09:08:32;9.70;99.90
36990;DHT22;22898;52.102;5.776;2023-12-20T09:10:57;9.80;99.90
36990;DHT22;22898;52.102;5.776;2023-12-20T09:13:23;10.00;99.90
36990;DHT22;22898;52.102;5.776;2023-12-20T09:15:57;10.10;99.90
36990;DHT22;22898;52.102;5.776;2023-12-20T09:18:23;10.00;99.90
36990;DHT22;22898;52.102;5.776;2023-12-20T09:20:48;10.00;99.90
36990;DHT22;22898;52.102;5.776;2023-12-20T09:23:14;10.20;99.90
36990;DHT22;22898;52.102;5.776;2023-12-20T09:25:40;10.10;99.90
36990;DHT22;22898;52.102;5.776;2023-12-20T09:28:05;10.10;99.90
36990;DHT22;22898;52.102;5.776;2023-12-20T09:30:31;10.20;99.90
36990;DHT22;22898;52.102;5.776;2023-12-20T09:32:57;10.40;99.90
36990;DHT22;22898;52.102;5.776;2023-12-20T09:35:23;10.30;99.90
36990;DHT22;22898;52.102;5.776;2023-12-20T09:37:49;10.10;99.90
36990;DHT22;22898;52.102;5.776;2023-12-20T09:40:18;9.90;99.90
36990;DHT22;22898;52.102;5.776;2023-12-20T09:42:57;9.80;99.90
36990;DHT22;22898;52.102;5.776;2023-12-20T09:45:23;9.60;99.90
36990;DHT22;22898;52.102;5.776;2023-12-20T09:47:53;9.60;99.90
36990;DHT22;22898;52.102;5.776;2023-12-20T09:50:22;9.80;99.90
36990;DHT22;22898;52.102;5.776;2023-12-20T09:52:50;9.70;99.90
36990;DHT22;22898;52.102;5.776;2023-12-20T09:55:17;9.80;99.90
36990;DHT22;22898;52.102;5.776;2023-12-20T09:57:44;10.00;99.90
36990;DHT22;22898;52.102;5.776;2023-12-20T10:00:11;10.10;99.90
36990;DHT22;22898;52.102;5.776;2023-12-20T10:02:39;10.30;99.90
36990;DHT22;22898;52.102;5.776;2023-12-20T10:05:08;10.40;99.90
36990;DHT22;22898;52.102;5.776;2023-12-20T10:07:36;10.10;99.90
36990;DHT22;22898;52.102;5.776;2023-12-20T10:10:02;10.40;99.90
36990;DHT22;22898;52.102;5.776;2023-12-20T10:12:28;10.60;99.90
36990;DHT22;22898;52.102;5.776;2023-12-20T10:14:53;10.60;99.90
36990;DHT22;22898;52.102;5.776;2023-12-20T10:17:21;10.40;99.90
36990;DHT22;22898;52.102;5.776;2023-12-20T10:19:47;10.30;99.90
36990;DHT22;22898;52.102;5.776;2023-12-20T10:22:12;10.60;99.90
36990;DHT22;22898;52.102;5.776;2023-12-20T10:24:40;10.70;99.90
36990;DHT22;22898;52.102;5.776;2023-12-20T10:27:07;10.80;99.90
36990;DHT22;22898;52.102;5.776;2023-12-20T10:29:33;10.80;99.90
36990;DHT22;22898;52.102;5.776;2023-12-20T10:31:59;10.70;99.90
36990;DHT22;22898;52.102;5.776;2023-12-20T10:34:25;10.70;99.90
36990;DHT22;22898;52.102;5.776;2023-12-20T10:36:51;10.80;99.90
36990;DHT22;22898;52.102;5.776;2023-12-20T10:39:17;11.20;99.90
36990;DHT22;22898;52.102;5.776;2023-12-20T10:41:45;11.20;99.90
36990;DHT22;22898;52.102;5.776;2023-12-20T10:44:12;11.30;99.90
36990;DHT22;22898;52.102;5.776;2023-12-20T10:46:40;11.10;99.90
36990;DHT22;22898;52.102;5.776;2023-12-20T10:49:07;11.30;99.90
36990;DHT22;22898;52.102;5.776;2023-12-20T10:51:37;11.60;99.90
36990;DHT22;22898;52.102;5.776;2023-12-20T10:54:03;11.40;99.90
36990;DHT22;22898;52.102;5.776;2023-12-20T10:56:32;11.10;99.90
36990;DHT22;22898;52.102;5.776;2023-12-20T10:59:01;10.90;99.90
36990;DHT22;22898;52.102;5.776;2023-12-20T11:01:29;10.90;99.90
36990;DHT22;22898;52.102;5.776;2023-12-20T11:03:55;11.00;99.90
36990;DHT22;22898;52.102;5.776;2023-12-20T11:06:38;11.00;99.90
36990;DHT22;22898;52.102;5.776;2023-12-20T11:14:39;11.80;99.90
36990;DHT22;22898;52.102;5.776;2023-12-20T11:17:08;11.80;99.90
36990;DHT22;22898;52.102;5.776;2023-12-20T11:19:43;11.50;99.90
36990;DHT22;22898;52.102;5.776;2023-12-20T11:22:25;11.60;99.90
36990;DHT22;22898;52.102;5.776;2023-12-20T11:24:52;11.60;99.90
36990;DHT22;22898;52.102;5.776;2023-12-20T11:27:19;11.40;99.90
36990;DHT22;22898;52.102;5.776;2023-12-20T11:29:52;11.30;99.90
36990;DHT22;22898;52.102;5.776;2023-12-20T11:35:01;11.30;99.90
36990;DHT22;22898;52.102;5.776;2023-12-20T11:37:41;11.40;99.90
36990;DHT22;22898;52.102;5.776;2023-12-20T11:40:17;11.30;99.90
36990;DHT22;22898;52.102;5.776;2023-12-20T11:42:45;11.60;99.90
36990;DHT22;22898;52.102;5.776;2023-12-20T11:45:19;11.90;99.90
36990;DHT22;22898;52.102;5.776;2023-12-20T11:47:47;11.80;99.90
36990;DHT22;22898;52.102;5.776;2023-12-20T11:50:18;11.50;99.90
36990;DHT22;22898;52.102;5.776;2023-12-20T11:52:44;11.50;99.90
36990;DHT22;22898;52.102;5.776;2023-12-20T11:55:09;11.30;99.90
36990;DHT22;22898;52.102;5.776;2023-12-20T11:57:36;11.40;99.90
36990;DHT22;22898;52.102;5.776;2023-12-20T12:00:02;11.70;99.90
36990;DHT22;22898;52.102;5.776;2023-12-20T12:02:28;11.90;99.90
36990;DHT22;22898;52.102;5.776;2023-12-20T12:04:54;12.20;99.90
36990;DHT22;22898;52.102;5.776;2023-12-20T12:07:21;11.90;99.90
36990;DHT22;22898;52.102;5.776;2023-12-20T12:09:46;11.90;99.90
36990;DHT22;22898;52.102;5.776;2023-12-20T12:12:12;12.10;99.90
36990;DHT22;22898;52.102;5.776;2023-12-20T12:14:39;12.20;99.90
36990;DHT22;22898;52.102;5.776;2023-12-20T12:17:10;12.40;99.90
36990;DHT22;22898;52.102;5.776;2023-12-20T12:19:37;12.20;99.90
36990;DHT22;22898;52.102;5.776;2023-12-20T12:22:11;11.80;99.90
36990;DHT22;22898;52.102;5.776;2023-12-20T12:24:46;12.10;99.90
36990;DHT22;22898;52.102;5.776;2023-12-20T12:27:15;11.70;99.90
36990;DHT22;22898;52.102;5.776;2023-12-20T12:29:43;11.80;99.90
36990;DHT22;22898;52.102;5.776;2023-12-20T12:32:25;11.50;99.90
36990;DHT22;22898;52.102;5.776;2023-12-20T12:34:51;11.50;99.90
36990;DHT22;22898;52.102;5.776;2023-12-20T12:37:16;11.30;99.90
36990;DHT22;22898;52.102;5.776;2023-12-20T12:39:42;11.30;99.90
36990;DHT22;22898;52.102;5.776;2023-12-20T12:42:08;11.40;99.90
36990;DHT22;22898;52.102;5.776;2023-12-20T12:44:33;11.80;99.90
36990;DHT22;22898;52.102;5.776;2023-12-20T12:46:59;11.90;99.90
36990;DHT22;22898;52.102;5.776;2023-12-20T12:49:25;11.90;99.90
36990;DHT22;22898;52.102;5.776;2023-12-20T12:51:51;11.60;99.90
36990;DHT22;22898;52.102;5.776;2023-12-20T12:54:17;11.50;99.90
36990;DHT22;22898;52.102;5.776;2023-12-20T12:56:44;11.80;99.90
36990;DHT22;22898;52.102;5.776;2023-12-20T12:59:10;11.80;99.90
36990;DHT22;22898;52.102;5.776;2023-12-20T13:01:36;11.40;99.90
36990;DHT22;22898;52.102;5.776;2023-12-20T13:04:02;11.70;99.90
36990;DHT22;22898;52.102;5.776;2023-12-20T13:06:29;11.50;99.90
36990;DHT22;22898;52.102;5.776;2023-12-20T13:08:55;11.60;99.90
36990;DHT22;22898;52.102;5.776;2023-12-20T13:11:20;11.70;99.90
36990;DHT22;22898;52.102;5.776;2023-12-20T13:13:46;11.90;99.90
36990;DHT22;22898;52.102;5.776;2023-12-20T13:16:12;11.60;99.90
36990;DHT22;22898;52.102;5.776;2023-12-20T13:18:38;11.50;99.90
36990;DHT22;22898;52.102;5.776;2023-12-20T13:21:08;11.20;99.90
36990;DHT22;22898;52.102;5.776;2023-12-20T13:23:33;11.50;99.90
36990;DHT22;22898;52.102;5.776;2023-12-20T13:25:59;11.50;99.90
36990;DHT22;22898;52.102;5.776;2023-12-20T13:28:25;11.40;99.90
36990;DHT22;22898;52.102;5.776;2023-12-20T13:30:50;11.30;99.90
36990;DHT22;22898;52.102;5.776;2023-12-20T13:33:16;11.20;99.90
36990;DHT22;22898;52.102;5.776;2023-12-20T13:35:41;10.90;99.90
36990;DHT22;22898;52.102;5.776;2023-12-20T13:38:07;10.80;99.90
36990;DHT22;22898;52.102;5.776;2023-12-20T13:40:33;11.20;99.90
36990;DHT22;22898;52.102;5.776;2023-12-20T13:42:58;11.30;99.90
36990;DHT22;22898;52.102;5.776;2023-12-20T13:45:24;11.50;99.90
36990;DHT22;22898;52.102;5.776;2023-12-20T13:47:50;11.70;99.90
36990;DHT22;22898;52.102;5.776;2023-12-20T13:50:16;11.70;99.90
36990;DHT22;22898;52.102;5.776;2023-12-20T13:52:42;11.70;99.90
36990;DHT22;22898;52.102;5.776;2023-12-20T13:55:08;11.60;99.90
36990;DHT22;22898;52.102;5.776;2023-12-20T13:57:35;11.60;99.90
36990;DHT22;22898;52.102;5.776;2023-12-20T14:00:04;11.40;99.90
36990;DHT22;22898;52.102;5.776;2023-12-20T14:02:30;11.10;99.90
36990;DHT22;22898;52.102;5.776;2023-12-20T14:04:55;11.10;99.90
36990;DHT22;22898;52.102;5.776;2023-12-20T14:07:21;11.20;99.90
36990;DHT22;22898;52.102;5.776;2023-12-20T14:09:47;11.40;99.90
36990;DHT22;22898;52.102;5.776;2023-12-20T14:12:13;11.70;99.90
36990;DHT22;22898;52.102;5.776;2023-12-20T14:14:39;11.90;99.90
36990;DHT22;22898;52.102;5.776;2023-12-20T14:17:04;11.80;99.90
36990;DHT22;22898;52.102;5.776;2023-12-20T14:19:33;11.60;99.90
36990;DHT22;22898;52.102;5.776;2023-12-20T14:21:59;11.90;99.90
36990;DHT22;22898;52.102;5.776;2023-12-20T14:24:28;11.70;99.90
36990;DHT22;22898;52.102;5.776;2023-12-20T14:26:54;11.30;99.90
36990;DHT22;22898;52.102;5.776;2023-12-20T14:29:19;11.10;99.90
36990;DHT22;22898;52.102;5.776;2023-12-20T14:31:45;11.40;99.90
36990;DHT22;22898;52.102;5.776;2023-12-20T14:34:11;12.00;99.90
36990;DHT22;22898;52.102;5.776;2023-12-20T14:36:37;12.10;99.90
36990;DHT22;22898;52.102;5.776;2023-12-20T14:39:03;12.00;99.90
36990;DHT22;22898;52.102;5.776;2023-12-20T14:41:30;12.00;99.90
36990;DHT22;22898;52.102;5.776;2023-12-20T14:43:55;12.20;99.90
36990;DHT22;22898;52.102;5.776;2023-12-20T14:46:21;12.10;99.90
36990;DHT22;22898;52.102;5.776;2023-12-20T14:48:47;11.80;99.90
36990;DHT22;22898;52.102;5.776;2023-12-20T14:51:13;11.90;99.90
36990;DHT22;22898;52.102;5.776;2023-12-20T14:53:39;12.40;99.90
36990;DHT22;22898;52.102;5.776;2023-12-20T14:56:05;12.60;99.90
36990;DHT22;22898;52.102;5.776;2023-12-20T14:58:31;12.40;99.90
36990;DHT22;22898;52.102;5.776;2023-12-20T15:00:57;12.10;99.90
36990;DHT22;22898;52.102;5.776;2023-12-20T15:03:23;11.90;99.90
36990;DHT22;22898;52.102;5.776;2023-12-20T15:05:49;11.70;99.90
36990;DHT22;22898;52.102;5.776;2023-12-20T15:08:15;12.10;99.90
36990;DHT22;22898;52.102;5.776;2023-12-20T15:10:41;11.90;99.90
36990;DHT22;22898;52.102;5.776;2023-12-20T15:13:06;11.60;99.90
36990;DHT22;22898;52.102;5.776;2023-12-20T15:15:32;11.70;99.90
36990;DHT22;22898;52.102;5.776;2023-12-20T15:17:59;11.50;99.90
36990;DHT22;22898;52.102;5.776;2023-12-20T15:20:25;11.60;99.90
36990;DHT22;22898;52.102;5.776;2023-12-20T15:22:51;11.50;99.90
36990;DHT22;22898;52.102;5.776;2023-12-20T15:25:18;11.30;99.90
36990;DHT22;22898;52.102;5.776;2023-12-20T15:27:47;11.30;99.90
36990;DHT22;22898;52.102;5.776;2023-12-20T15:30:21;11.60;99.90
36990;DHT22;22898;52.102;5.776;2023-12-20T15:32:47;12.10;99.90
36990;DHT22;22898;52.102;5.776;2023-12-20T15:35:12;12.50;99.90
36990;DHT22;22898;52.102;5.776;2023-12-20T15:37:41;12.80;99.90
36990;DHT22;22898;52.102;5.776;2023-12-20T15:40:11;12.50;99.90